createdAt,value
2017-12-02T00:00:31.759Z,83.50
2017-12-02T00:02:58.046Z,82.70
2017-12-02T00:05:24.263Z,83.80
2017-12-02T00:07:51.245Z,83.80
2017-12-02T00:10:17.531Z,83.70
2017-12-02T00:12:44.492Z,83.40
2017-12-02T00:15:11.468Z,82.80
2017-12-02T00:17:37.790Z,82.80
2017-12-02T00:20:04.027Z,83.20
2017-12-02T00:22:30.349Z,84.50
2017-12-02T00:24:56.594Z,83.30
2017-12-02T00:27:22.926Z,81.20
2017-12-02T00:29:49.165Z,82.50
2017-12-02T00:32:15.411Z,82.30
2017-12-02T00:34:41.695Z,84.00
2017-12-02T00:37:08.001Z,84.10
2017-12-02T00:39:34.966Z,82.10
2017-12-02T00:42:01.241Z,82.00
2017-12-02T00:44:27.514Z,82.40
2017-12-02T00:46:53.815Z,82.20
2017-12-02T00:49:20.814Z,80.90
2017-12-02T00:51:47.032Z,80.80
2017-12-02T00:54:13.271Z,81.10
2017-12-02T00:56:39.551Z,80.80
2017-12-02T00:59:06.555Z,80.90
2017-12-02T01:01:32.799Z,80.90
2017-12-02T01:03:59.405Z,80.00
2017-12-02T01:06:25.625Z,79.90
2017-12-02T01:08:51.844Z,81.00
2017-12-02T01:11:18.112Z,81.20
2017-12-02T01:13:44.364Z,81.00
2017-12-02T01:16:10.648Z,80.40
2017-12-02T01:18:36.906Z,80.50
2017-12-02T01:21:03.132Z,80.30
2017-12-02T01:23:29.429Z,78.90
2017-12-02T01:25:55.620Z,78.60
2017-12-02T01:28:22.570Z,83.00
2017-12-02T01:30:48.751Z,82.30
2017-12-02T01:33:14.965Z,82.40
2017-12-02T01:35:41.219Z,82.00
2017-12-02T01:38:07.471Z,81.00
2017-12-02T01:40:33.723Z,79.10
2017-12-02T01:43:00.711Z,80.00
2017-12-02T01:45:26.944Z,80.00
2017-12-02T01:47:53.195Z,80.40
2017-12-02T01:50:19.413Z,83.30
2017-12-02T01:52:45.667Z,82.20
2017-12-02T01:55:12.651Z,82.70
2017-12-02T01:57:38.910Z,82.70
2017-12-02T02:00:05.111Z,81.20
2017-12-02T02:02:31.289Z,83.30
2017-12-02T02:04:57.512Z,84.90
2017-12-02T02:07:24.478Z,85.10
2017-12-02T02:09:51.446Z,83.20
2017-12-02T02:12:17.702Z,83.20
2017-12-02T02:14:43.976Z,84.10
2017-12-02T02:17:10.934Z,83.80
2017-12-02T02:19:37.890Z,81.60
2017-12-02T02:22:04.901Z,82.40
2017-12-02T02:24:31.181Z,82.40
2017-12-02T02:26:57.427Z,82.50
2017-12-02T02:29:23.659Z,83.50
2017-12-02T02:31:49.915Z,84.50
2017-12-02T02:34:16.186Z,84.60
2017-12-02T02:36:42.468Z,84.00
2017-12-02T02:39:08.696Z,85.60
2017-12-02T02:41:34.961Z,83.40
2017-12-02T02:44:01.907Z,85.70
2017-12-02T02:46:28.882Z,84.80
2017-12-02T02:48:55.464Z,84.70
2017-12-02T02:51:21.734Z,84.90
2017-12-02T02:53:47.954Z,84.00
2017-12-02T02:56:14.264Z,83.60
2017-12-02T02:58:41.255Z,80.00
2017-12-02T03:01:07.484Z,80.00
2017-12-02T03:03:33.742Z,81.90
2017-12-02T03:05:59.991Z,82.60
2017-12-02T03:08:26.976Z,83.70
2017-12-02T03:10:53.279Z,83.00
2017-12-02T03:13:20.292Z,83.10
2017-12-02T03:15:46.633Z,83.10
2017-12-02T03:18:12.953Z,82.60
2017-12-02T03:20:39.278Z,81.70
2017-12-02T03:23:05.536Z,80.10
2017-12-02T03:25:32.534Z,82.50
2017-12-02T03:27:58.814Z,82.50
2017-12-02T03:30:25.899Z,81.60
2017-12-02T03:32:52.125Z,80.80
2017-12-02T03:35:18.376Z,81.80
2017-12-02T03:37:44.612Z,81.50
2017-12-02T03:40:10.954Z,81.10
2017-12-02T03:42:37.218Z,80.30
2017-12-02T03:45:04.199Z,80.40
2017-12-02T03:47:30.507Z,80.30
2017-12-02T03:49:56.780Z,81.90
2017-12-02T03:52:23.083Z,80.60
2017-12-02T03:54:49.399Z,82.20
2017-12-02T03:57:15.715Z,81.40
2017-12-02T03:59:42.018Z,81.00
2017-12-02T04:02:08.270Z,80.20
2017-12-02T04:04:35.331Z,78.90
2017-12-02T04:07:02.387Z,82.40
2017-12-02T04:09:28.676Z,82.40
2017-12-02T04:11:55.018Z,82.30
2017-12-02T04:14:22.045Z,80.80
2017-12-02T04:16:48.396Z,80.80
2017-12-02T04:19:15.457Z,79.30
2017-12-02T04:21:42.532Z,78.50
2017-12-02T04:24:08.783Z,78.50
2017-12-02T04:26:35.105Z,80.60
2017-12-02T04:29:01.402Z,80.90
2017-12-02T04:31:27.699Z,80.70
2017-12-02T04:33:54.664Z,78.40
2017-12-02T04:36:21.687Z,78.30
2017-12-02T04:38:48.694Z,80.20
2017-12-02T04:41:14.959Z,80.20
2017-12-02T04:43:41.217Z,80.80
2017-12-02T04:46:08.253Z,79.80
2017-12-02T04:48:35.327Z,78.90
2017-12-02T04:51:01.643Z,78.70
2017-12-02T04:53:28.708Z,78.50
2017-12-02T04:55:54.979Z,78.40
2017-12-02T04:58:21.195Z,79.90
2017-12-02T05:00:47.479Z,80.30
2017-12-02T05:03:14.553Z,79.80
2017-12-02T05:05:40.853Z,79.70
2017-12-02T05:08:07.838Z,79.00
2017-12-02T05:10:34.122Z,79.00
2017-12-02T05:13:00.393Z,79.00
2017-12-02T05:15:26.702Z,79.10
2017-12-02T05:17:53.005Z,78.10
2017-12-02T05:20:19.222Z,77.20
2017-12-02T05:22:45.471Z,79.00
2017-12-02T05:25:12.510Z,77.60
2017-12-02T05:27:38.784Z,77.60
2017-12-02T05:30:05.014Z,78.00
2017-12-02T05:32:31.384Z,77.90
2017-12-02T05:34:57.673Z,80.00
2017-12-02T05:37:23.890Z,81.10
2017-12-02T05:39:50.958Z,80.30
2017-12-02T05:42:17.264Z,80.20
2017-12-02T05:44:43.593Z,79.00
2017-12-02T05:47:10.642Z,79.60
2017-12-02T05:49:37.671Z,79.40
2017-12-02T05:52:03.936Z,79.40
2017-12-02T05:54:30.255Z,79.60
2017-12-02T05:56:56.590Z,80.40
2017-12-02T05:59:22.941Z,79.90
2017-12-02T06:01:49.257Z,80.50
2017-12-02T06:04:15.567Z,80.40
2017-12-02T06:06:42.572Z,79.70
2017-12-02T06:09:08.854Z,79.70
2017-12-02T06:11:35.218Z,79.50
2017-12-02T06:14:01.524Z,79.60
2017-12-02T06:16:27.811Z,80.60
2017-12-02T06:18:54.086Z,79.70
2017-12-02T06:21:20.399Z,80.30
2017-12-02T06:23:47.399Z,79.40
2017-12-02T06:26:13.692Z,79.40
2017-12-02T06:28:40.002Z,77.70
2017-12-02T06:31:06.408Z,79.30
2017-12-02T06:33:32.691Z,79.50
2017-12-02T06:35:59.025Z,79.20
2017-12-02T06:38:25.371Z,79.90
2017-12-02T06:40:51.696Z,80.10
2017-12-02T06:43:17.989Z,79.80
2017-12-02T06:45:45.000Z,78.70
2017-12-02T06:48:11.242Z,78.60
2017-12-02T06:50:37.545Z,77.30
2017-12-02T06:53:04.610Z,79.70
2017-12-02T06:55:30.883Z,79.70
2017-12-02T06:57:57.178Z,79.40
2017-12-02T07:00:23.542Z,77.90
2017-12-02T07:02:49.870Z,79.70
2017-12-02T07:05:16.189Z,79.50
2017-12-02T07:07:42.547Z,80.00
2017-12-02T07:10:08.856Z,81.20
2017-12-02T07:12:35.924Z,81.90
2017-12-02T07:15:02.298Z,81.90
2017-12-02T07:17:28.645Z,82.30
2017-12-02T07:19:55.710Z,81.00
2017-12-02T07:22:22.035Z,81.00
2017-12-02T07:24:49.167Z,83.40
2017-12-02T07:27:16.158Z,83.00
2017-12-02T07:29:42.540Z,83.00
2017-12-02T07:32:09.584Z,81.10
2017-12-02T07:34:35.887Z,81.00
2017-12-02T07:37:02.257Z,80.70
2017-12-02T07:39:29.270Z,80.60
2017-12-02T07:41:55.569Z,80.50
2017-12-02T07:44:21.905Z,79.70
2017-12-02T07:46:48.355Z,79.50
2017-12-02T07:49:14.611Z,79.50
2017-12-02T07:51:40.923Z,79.10
2017-12-02T07:54:07.306Z,79.00
2017-12-02T07:56:34.307Z,78.10
2017-12-02T07:59:00.719Z,78.10
2017-12-02T08:01:27.000Z,78.50
2017-12-02T08:03:54.087Z,76.80
2017-12-02T08:06:20.386Z,76.80
2017-12-02T08:08:47.425Z,77.40
2017-12-02T08:11:14.471Z,77.80
2017-12-02T08:13:41.539Z,78.40
2017-12-02T08:16:08.623Z,79.80
2017-12-02T08:18:34.929Z,79.80
2017-12-02T08:21:01.223Z,80.00
2017-12-02T08:23:27.535Z,80.00
2017-12-02T08:25:54.651Z,78.90
2017-12-02T08:28:20.957Z,75.30
2017-12-02T08:30:47.993Z,81.20
2017-12-02T08:33:14.987Z,77.40
2017-12-02T08:38:34.749Z,80.10
2017-12-02T08:41:00.994Z,80.10
2017-12-02T08:43:27.314Z,81.90
2017-12-02T08:45:53.674Z,79.80
2017-12-02T08:48:20.720Z,80.40
2017-12-02T08:50:47.731Z,81.50
2017-12-02T08:53:14.042Z,81.40
2017-12-02T08:55:40.365Z,81.60
2017-12-02T08:58:06.627Z,81.00
2017-12-02T09:00:32.935Z,82.10
2017-12-02T09:02:59.175Z,82.70
2017-12-02T09:05:26.037Z,80.70
2017-12-02T09:07:52.325Z,79.90
2017-12-02T09:10:18.695Z,80.90
2017-12-02T09:12:45.014Z,79.60
2017-12-02T09:15:11.439Z,79.50
2017-12-02T09:17:37.861Z,79.20
2017-12-02T09:20:04.157Z,78.50
2017-12-02T09:22:31.219Z,79.60
2017-12-02T09:24:57.553Z,79.50
2017-12-02T09:27:23.815Z,78.60
2017-12-02T09:29:50.083Z,76.80
2017-12-02T09:32:17.161Z,75.70
2017-12-02T09:34:43.502Z,75.70
2017-12-02T09:37:09.860Z,73.60
2017-12-02T09:39:36.166Z,70.50
2017-12-02T09:42:02.491Z,70.90
2017-12-02T09:44:28.800Z,72.90
2017-12-02T09:46:55.846Z,69.30
2017-12-02T09:49:22.904Z,70.40
2017-12-02T09:51:49.966Z,72.30
2017-12-02T09:54:16.275Z,72.30
2017-12-02T09:59:14.570Z,74.70
2017-12-02T10:01:40.916Z,74.50
2017-12-02T10:04:07.206Z,71.20
2017-12-02T10:06:33.493Z,62.20
2017-12-02T10:08:59.751Z,59.70
2017-12-02T10:11:26.006Z,59.00
2017-12-02T10:16:24.952Z,53.40
2017-12-02T10:18:51.277Z,53.80
2017-12-02T10:21:17.628Z,53.70
2017-12-02T10:23:43.964Z,50.60
2017-12-02T10:26:10.244Z,50.80
2017-12-02T10:28:37.251Z,50.50
2017-12-02T10:31:06.409Z,50.40
2017-12-02T10:33:32.775Z,50.20
2017-12-02T10:35:59.079Z,46.90
2017-12-02T10:38:25.388Z,45.40
2017-12-02T10:40:51.749Z,49.10
2017-12-02T10:43:18.054Z,50.40
2017-12-02T10:45:44.371Z,49.10
2017-12-02T10:48:11.449Z,45.60
2017-12-02T10:50:37.738Z,45.60
2017-12-02T10:53:04.038Z,43.90
2017-12-02T10:55:30.386Z,42.50
2017-12-02T10:57:57.486Z,45.10
2017-12-02T11:00:23.773Z,45.10
2017-12-02T11:02:50.057Z,46.80
2017-12-02T11:05:16.334Z,46.70
2017-12-02T11:07:43.368Z,49.10
2017-12-02T11:10:09.655Z,48.40
2017-12-02T11:12:35.947Z,50.00
2017-12-02T11:15:05.931Z,56.10
2017-12-02T11:17:32.231Z,56.10
2017-12-02T11:19:58.460Z,54.30
2017-12-02T11:22:24.687Z,57.70
2017-12-02T11:24:50.954Z,58.60
2017-12-02T11:27:17.203Z,58.60
2017-12-02T11:29:43.407Z,59.50
2017-12-02T11:32:09.719Z,59.20
2017-12-02T11:34:35.994Z,59.30
2017-12-02T11:37:02.997Z,63.50
2017-12-02T11:39:29.246Z,63.50
2017-12-02T11:41:55.489Z,62.40
2017-12-02T11:44:22.528Z,66.80
2017-12-02T11:46:49.569Z,70.10
2017-12-02T11:49:15.858Z,70.20
2017-12-02T11:51:42.128Z,70.40
2017-12-02T11:54:08.412Z,69.00
2017-12-02T11:56:34.644Z,71.30
2017-12-02T11:59:00.938Z,72.60
2017-12-02T12:01:27.968Z,71.80
2017-12-02T12:03:55.014Z,73.80
2017-12-02T12:06:21.226Z,73.90
2017-12-02T12:08:47.414Z,74.40
2017-12-02T12:11:13.689Z,75.00
2017-12-02T12:13:39.892Z,74.40
2017-12-02T12:16:06.163Z,71.70
2017-12-02T12:18:33.171Z,74.10
2017-12-02T12:20:59.433Z,74.10
2017-12-02T12:23:25.674Z,74.80
2017-12-02T12:25:52.626Z,72.70
2017-12-02T12:28:19.630Z,72.90
2017-12-02T12:30:45.914Z,72.70
2017-12-02T12:33:12.864Z,74.10
2017-12-02T12:35:39.823Z,73.90
2017-12-02T12:38:06.082Z,73.80
2017-12-02T12:40:32.279Z,73.60
2017-12-02T12:42:58.570Z,74.00
2017-12-02T12:45:25.566Z,74.10
2017-12-02T12:47:51.828Z,74.00
2017-12-02T12:50:18.083Z,75.10
2017-12-02T12:52:45.001Z,74.30
2017-12-02T12:55:11.246Z,74.20
2017-12-02T12:57:38.237Z,74.20
2017-12-02T13:00:04.505Z,73.90
2017-12-02T13:02:30.702Z,75.10
2017-12-02T13:04:56.897Z,75.20
2017-12-02T13:07:23.852Z,74.30
2017-12-02T13:09:50.837Z,73.40
2017-12-02T13:12:17.077Z,73.40
2017-12-02T13:14:43.305Z,74.20
2017-12-02T13:17:09.515Z,74.80
2017-12-02T13:19:35.726Z,73.70
2017-12-02T13:22:01.895Z,74.60
2017-12-02T13:24:28.121Z,75.70
2017-12-02T13:26:54.354Z,75.10
2017-12-02T13:29:21.364Z,75.10
2017-12-02T13:31:47.619Z,75.20
2017-12-02T13:34:13.862Z,73.20
2017-12-02T13:36:40.136Z,73.50
2017-12-02T13:39:06.425Z,74.60
2017-12-02T13:41:33.420Z,75.10
2017-12-02T13:43:59.655Z,75.10
2017-12-02T13:46:25.909Z,75.50
2017-12-02T13:48:52.163Z,76.30
2017-12-02T13:51:18.412Z,75.70
2017-12-02T13:53:45.435Z,73.60
2017-12-02T13:56:12.426Z,72.90
2017-12-02T13:58:38.630Z,72.70
2017-12-02T14:01:05.653Z,74.10
2017-12-02T14:03:32.625Z,74.80
2017-12-02T14:05:59.600Z,74.90
2017-12-02T14:08:25.822Z,75.60
2017-12-02T14:10:52.104Z,74.80
2017-12-02T14:13:19.142Z,75.70
2017-12-02T14:15:45.352Z,75.70
2017-12-02T14:18:11.563Z,76.50
2017-12-02T14:20:37.766Z,76.70
2017-12-02T14:23:04.771Z,75.50
2017-12-02T14:25:31.067Z,75.50
2017-12-02T14:27:57.296Z,74.40
2017-12-02T14:30:23.506Z,75.90
2017-12-02T14:32:49.743Z,76.70
2017-12-02T14:35:16.024Z,76.20
2017-12-02T14:37:42.307Z,76.30
2017-12-02T14:40:08.524Z,76.50
2017-12-02T14:42:34.763Z,76.60
2017-12-02T14:47:33.081Z,76.00
2017-12-02T14:49:59.349Z,77.00
2017-12-02T14:52:26.359Z,75.70
2017-12-02T14:54:52.605Z,75.70
2017-12-02T14:57:18.825Z,75.60
2017-12-02T14:59:45.083Z,76.50
2017-12-02T15:02:12.093Z,75.40
2017-12-02T15:04:38.348Z,75.40
2017-12-02T15:07:05.323Z,76.40
2017-12-02T15:09:32.333Z,75.50
2017-12-02T15:11:58.626Z,75.50
2017-12-02T15:14:24.882Z,75.40
2017-12-02T15:16:51.095Z,74.70
2017-12-02T15:19:17.338Z,73.70
2017-12-02T15:21:43.560Z,74.80
2017-12-02T15:24:09.784Z,75.80
2017-12-02T15:26:36.063Z,73.00
2017-12-02T15:29:02.300Z,74.00
2017-12-02T15:31:28.542Z,73.90
2017-12-02T15:33:54.778Z,74.00
2017-12-02T15:36:21.090Z,76.10
2017-12-02T15:38:47.394Z,73.80
2017-12-02T15:41:14.404Z,73.10
2017-12-02T15:43:40.710Z,73.10
2017-12-02T15:46:07.004Z,74.10
2017-12-02T15:48:33.306Z,74.40
2017-12-02T15:50:59.552Z,74.10
2017-12-02T15:53:26.504Z,75.80
2017-12-02T15:55:53.545Z,76.40
2017-12-02T15:58:20.599Z,75.60
2017-12-02T16:00:47.661Z,75.40
2017-12-02T16:03:14.731Z,74.80
2017-12-02T16:05:41.063Z,74.80
2017-12-02T16:08:07.312Z,74.60
2017-12-02T16:10:33.634Z,74.40
2017-12-02T16:12:59.873Z,75.60
2017-12-02T16:15:26.151Z,74.90
2017-12-02T16:17:53.154Z,76.10
2017-12-02T16:20:19.477Z,76.10
2017-12-02T16:22:45.762Z,76.30
2017-12-02T16:25:12.825Z,77.10
2017-12-02T16:27:39.138Z,77.10
2017-12-02T16:30:06.107Z,79.40
2017-12-02T16:32:32.381Z,79.40
2017-12-02T16:34:58.674Z,79.00
2017-12-02T16:37:24.933Z,77.30
2017-12-02T16:39:51.209Z,77.50
2017-12-02T16:42:17.452Z,77.50
2017-12-02T16:44:43.742Z,77.20
2017-12-02T16:47:10.836Z,76.00
2017-12-02T16:49:37.097Z,75.20
2017-12-02T16:52:03.445Z,76.30
2017-12-02T16:54:29.739Z,76.30
2017-12-02T16:56:56.035Z,76.30
2017-12-02T16:59:23.055Z,77.40
2017-12-02T17:01:50.053Z,77.90
2017-12-02T17:04:16.423Z,77.90
2017-12-02T17:06:42.707Z,78.80
2017-12-02T17:09:08.968Z,78.60
2017-12-02T17:11:35.238Z,78.10
2017-12-02T17:14:02.298Z,77.30
2017-12-02T17:16:28.607Z,77.30
2017-12-02T17:18:55.575Z,75.60
2017-12-02T17:21:22.583Z,76.70
2017-12-02T17:23:48.899Z,76.70
2017-12-02T17:26:15.255Z,76.30
2017-12-02T17:28:42.262Z,76.40
2017-12-02T17:31:08.538Z,76.40
2017-12-02T17:33:35.532Z,76.90
2017-12-02T17:36:01.880Z,76.90
2017-12-02T17:38:28.148Z,77.50
2017-12-02T17:40:55.234Z,76.80
2017-12-02T17:43:21.563Z,76.70
2017-12-02T17:45:47.862Z,77.00
2017-12-02T17:48:14.860Z,77.60
2017-12-02T17:50:41.096Z,77.60
2017-12-02T17:53:07.280Z,77.90
2017-12-02T17:55:33.571Z,77.90
2017-12-02T17:57:59.887Z,78.50
2017-12-02T18:00:26.116Z,77.80
2017-12-02T18:02:52.403Z,76.90
2017-12-02T18:05:18.648Z,77.10
2017-12-02T18:07:44.935Z,77.50
2017-12-02T18:10:11.952Z,75.60
2017-12-02T18:12:38.271Z,75.50
2017-12-02T18:15:04.456Z,76.60
2017-12-02T18:17:31.465Z,76.90
2017-12-02T18:19:57.766Z,76.80
2017-12-02T18:22:24.031Z,77.30
2017-12-02T18:24:50.212Z,77.40
2017-12-02T18:27:16.496Z,77.40
2017-12-02T18:29:42.770Z,77.80
2017-12-02T18:32:09.024Z,77.50
2017-12-02T18:34:35.300Z,77.60
2017-12-02T18:37:02.258Z,77.20
2017-12-02T18:39:28.573Z,77.20
2017-12-02T18:41:55.581Z,76.20
2017-12-02T18:44:21.800Z,76.10
2017-12-02T18:46:48.138Z,76.90
2017-12-02T18:49:14.401Z,77.50
2017-12-02T18:51:41.386Z,76.80
2017-12-02T18:54:07.692Z,76.70
2017-12-02T18:56:34.001Z,76.30
2017-12-02T18:59:00.961Z,75.10
2017-12-02T19:01:27.906Z,75.20
2017-12-02T19:03:54.855Z,75.30
2017-12-02T19:06:21.868Z,75.30
2017-12-02T19:08:48.147Z,75.20
2017-12-02T19:11:14.431Z,74.60
2017-12-02T19:13:41.479Z,76.00
2017-12-02T19:16:07.761Z,76.00
2017-12-02T19:18:34.094Z,75.60
2017-12-02T19:21:00.389Z,75.00
2017-12-02T19:23:27.418Z,75.10
2017-12-02T19:25:54.403Z,76.20
2017-12-02T19:28:21.464Z,76.60
2017-12-02T19:30:47.681Z,76.60
2017-12-02T19:33:13.943Z,76.60
2017-12-02T19:35:40.184Z,76.10
2017-12-02T19:38:06.478Z,75.90
2017-12-02T19:40:32.708Z,75.00
2017-12-02T19:42:58.994Z,75.20
2017-12-02T19:45:26.001Z,77.00
2017-12-02T19:47:52.276Z,76.80
2017-12-02T19:50:19.811Z,75.30
2017-12-02T19:52:46.040Z,75.20
2017-12-02T19:55:12.341Z,74.80
2017-12-02T19:57:38.594Z,75.20
2017-12-02T20:00:04.909Z,74.90
2017-12-02T20:02:31.144Z,74.90
2017-12-02T20:04:57.424Z,75.20
2017-12-02T20:07:24.413Z,75.30
2017-12-02T20:09:50.780Z,75.20
2017-12-02T20:12:17.780Z,74.80
2017-12-02T20:14:44.052Z,74.70
2017-12-02T20:17:10.334Z,75.10
2017-12-02T20:19:36.651Z,74.20
2017-12-02T20:22:02.947Z,74.70
2017-12-02T20:24:30.031Z,74.90
2017-12-02T20:26:56.357Z,74.90
2017-12-02T20:29:22.598Z,75.30
2017-12-02T20:31:48.847Z,75.90
2017-12-02T20:34:15.099Z,76.80
2017-12-02T20:36:41.367Z,76.00
2017-12-02T20:39:07.597Z,75.50
2017-12-02T20:41:33.877Z,75.20
2017-12-02T20:44:00.180Z,74.60
2017-12-02T20:46:26.441Z,75.50
2017-12-02T20:48:52.706Z,75.70
2017-12-02T20:51:19.665Z,75.40
2017-12-02T20:53:46.621Z,75.60
2017-12-02T20:56:12.876Z,75.50
2017-12-02T20:58:39.134Z,76.30
2017-12-02T21:01:05.373Z,76.60
2017-12-02T21:03:32.339Z,77.30
2017-12-02T21:05:58.584Z,76.80
2017-12-02T21:08:24.874Z,75.50
2017-12-02T21:10:51.862Z,76.60
2017-12-02T21:13:18.092Z,76.50
2017-12-02T21:15:44.305Z,77.70
2017-12-02T21:18:10.547Z,78.30
2017-12-02T21:20:36.767Z,78.10
2017-12-02T21:23:03.052Z,77.30
2017-12-02T21:25:29.264Z,75.70
2017-12-02T21:27:55.520Z,76.00
2017-12-02T21:30:22.574Z,76.80
2017-12-02T21:32:49.540Z,77.50
2017-12-02T21:35:15.822Z,77.50
2017-12-02T21:37:42.044Z,77.50
2017-12-02T21:40:08.337Z,76.40
2017-12-02T21:42:34.566Z,75.70
2017-12-02T21:45:00.841Z,74.90
2017-12-02T21:47:27.068Z,74.60
2017-12-02T21:49:53.339Z,75.50
2017-12-02T21:52:19.619Z,76.00
2017-12-02T21:54:45.849Z,77.10
2017-12-02T21:57:12.154Z,76.30
2017-12-02T21:59:38.464Z,75.50
2017-12-02T22:02:04.707Z,74.30
2017-12-02T22:04:30.971Z,75.00
2017-12-02T22:06:57.239Z,75.30
2017-12-02T22:09:24.268Z,77.20
2017-12-02T22:11:51.279Z,76.70
2017-12-02T22:14:17.565Z,76.70
2017-12-02T22:16:43.837Z,75.20
2017-12-02T22:19:10.156Z,76.00
2017-12-02T22:21:36.500Z,76.70
2017-12-02T22:24:02.820Z,76.90
2017-12-02T22:26:29.096Z,77.40
2017-12-02T22:28:56.098Z,76.70
2017-12-02T22:31:22.391Z,76.70
2017-12-02T22:33:48.662Z,77.60
2017-12-02T22:36:14.943Z,76.90
2017-12-02T22:38:41.991Z,75.80
2017-12-02T22:41:09.034Z,75.80
2017-12-02T22:43:36.115Z,75.50
2017-12-02T22:46:02.507Z,75.40
2017-12-02T22:48:29.472Z,74.90
2017-12-02T22:50:56.422Z,75.60
2017-12-02T22:53:23.438Z,75.20
2017-12-02T22:55:49.739Z,75.10
2017-12-02T22:58:16.033Z,76.10
2017-12-02T23:00:43.025Z,76.00
2017-12-02T23:03:09.291Z,76.00
2017-12-02T23:05:36.301Z,75.60
2017-12-02T23:08:02.540Z,75.60
2017-12-02T23:10:28.881Z,74.90
2017-12-02T23:12:55.901Z,74.80
2017-12-02T23:15:22.150Z,74.80
2017-12-02T23:17:48.443Z,75.80
2017-12-02T23:20:14.714Z,74.90
2017-12-02T23:22:41.687Z,76.20
2017-12-02T23:25:08.668Z,76.30
2017-12-02T23:27:34.862Z,76.20
2017-12-02T23:30:01.876Z,77.30
2017-12-02T23:32:28.829Z,76.00
2017-12-02T23:34:55.802Z,75.50
2017-12-02T23:37:22.823Z,75.80
2017-12-02T23:39:49.846Z,75.40
2017-12-02T23:42:16.082Z,74.60
2017-12-02T23:44:43.113Z,75.10
2017-12-02T23:47:09.366Z,75.10
2017-12-02T23:49:36.399Z,75.30
2017-12-02T23:52:02.689Z,75.30
2017-12-02T23:54:28.909Z,75.00
2017-12-02T23:56:55.155Z,74.20
2017-12-02T23:59:21.348Z,74.50
